Terminal Aerodrome Forecast
Issued by NWS

Home | Current Version | Previous Version | Text Only | Print | Product List | Glossary Off
Versions: 1 2 3 4 5 6 7 8 9 10 11 12 13 14 15 16 17 18 19 20 21

000
FTUS43 KOAX 121100
TAFCDR
TAF
KCDR 121131Z 1212/1312 VRB03KT 6SM BR VCSH BKN020
     FM121400 VRB05KT P6SM SCT035
     FM121900 14008KT P6SM SKC=

USA.gov is the U.S. government's official web portal to all federal, state and local government web resources and services.